sensor_id;sensor_type;location;lat;lon;timestamp;P1;durP1;ratioP1;P2;durP2;ratioP2
5776;SDS011;2914;42.668;23.346;2023-03-31T00:01:11;12.90;;;7.77;;
5776;SDS011;2914;42.668;23.346;2023-03-31T00:03:40;12.47;;;7.73;;
5776;SDS011;2914;42.668;23.346;2023-03-31T00:06:10;12.50;;;7.90;;
5776;SDS011;2914;42.668;23.346;2023-03-31T00:08:42;12.10;;;8.17;;
5776;SDS011;2914;42.668;23.346;2023-03-31T00:11:12;17.73;;;7.60;;
5776;SDS011;2914;42.668;23.346;2023-03-31T00:13:41;16.13;;;10.07;;
5776;SDS011;2914;42.668;23.346;2023-03-31T00:16:10;14.77;;;8.13;;
5776;SDS011;2914;42.668;23.346;2023-03-31T00:18:40;22.87;;;10.10;;
5776;SDS011;2914;42.668;23.346;2023-03-31T00:21:13;27.13;;;12.53;;
5776;SDS011;2914;42.668;23.346;2023-03-31T00:23:51;65.37;;;15.30;;
5776;SDS011;2914;42.668;23.346;2023-03-31T00:26:35;314.13;;;63.60;;
5776;SDS011;2914;42.668;23.346;2023-03-31T00:29:05;331.10;;;74.67;;
5776;SDS011;2914;42.668;23.346;2023-03-31T00:31:36;319.10;;;66.27;;
5776;SDS011;2914;42.668;23.346;2023-03-31T00:34:05;293.03;;;65.23;;
5776;SDS011;2914;42.668;23.346;2023-03-31T00:36:35;208.40;;;46.80;;
5776;SDS011;2914;42.668;23.346;2023-03-31T00:39:05;185.67;;;41.57;;
5776;SDS011;2914;42.668;23.346;2023-03-31T00:41:36;281.50;;;58.13;;
5776;SDS011;2914;42.668;23.346;2023-03-31T00:44:07;273.90;;;54.87;;
5776;SDS011;2914;42.668;23.346;2023-03-31T00:46:40;191.40;;;44.53;;
5776;SDS011;2914;42.668;23.346;2023-03-31T00:49:18;305.10;;;65.23;;
5776;SDS011;2914;42.668;23.346;2023-03-31T00:51:51;269.00;;;63.17;;
5776;SDS011;2914;42.668;23.346;2023-03-31T00:54:22;350.13;;;76.90;;
5776;SDS011;2914;42.668;23.346;2023-03-31T00:56:54;320.10;;;67.53;;
5776;SDS011;2914;42.668;23.346;2023-03-31T00:59:27;200.00;;;45.73;;
5776;SDS011;2914;42.668;23.346;2023-03-31T01:01:58;213.40;;;49.83;;
5776;SDS011;2914;42.668;23.346;2023-03-31T01:04:30;205.53;;;49.17;;
5776;SDS011;2914;42.668;23.346;2023-03-31T01:07:04;170.20;;;40.27;;
5776;SDS011;2914;42.668;23.346;2023-03-31T01:09:37;179.50;;;46.13;;
5776;SDS011;2914;42.668;23.346;2023-03-31T01:12:07;164.73;;;42.87;;
5776;SDS011;2914;42.668;23.346;2023-03-31T01:14:37;153.20;;;39.63;;
5776;SDS011;2914;42.668;23.346;2023-03-31T01:17:06;125.00;;;34.77;;
5776;SDS011;2914;42.668;23.346;2023-03-31T01:19:46;127.10;;;32.17;;
5776;SDS011;2914;42.668;23.346;2023-03-31T01:25:28;80.50;;;23.67;;
5776;SDS011;2914;42.668;23.346;2023-03-31T01:28:10;55.70;;;17.57;;
5776;SDS011;2914;42.668;23.346;2023-03-31T01:39:53;81.43;;;23.37;;
5776;SDS011;2914;42.668;23.346;2023-03-31T01:42:54;63.47;;;18.60;;
5776;SDS011;2914;42.668;23.346;2023-03-31T01:45:43;52.37;;;17.40;;
5776;SDS011;2914;42.668;23.346;2023-03-31T01:48:16;46.60;;;14.10;;
5776;SDS011;2914;42.668;23.346;2023-03-31T01:50:50;41.10;;;14.23;;
5776;SDS011;2914;42.668;23.346;2023-03-31T01:53:21;54.53;;;18.30;;
5776;SDS011;2914;42.668;23.346;2023-03-31T01:55:56;36.40;;;14.47;;
5776;SDS011;2914;42.668;23.346;2023-03-31T01:58:28;59.40;;;16.90;;
5776;SDS011;2914;42.668;23.346;2023-03-31T02:01:01;58.87;;;17.20;;
5776;SDS011;2914;42.668;23.346;2023-03-31T02:03:32;60.03;;;17.63;;
5776;SDS011;2914;42.668;23.346;2023-03-31T02:06:05;37.33;;;14.60;;
5776;SDS011;2914;42.668;23.346;2023-03-31T02:08:37;48.87;;;15.60;;
5776;SDS011;2914;42.668;23.346;2023-03-31T02:11:09;49.97;;;15.60;;
5776;SDS011;2914;42.668;23.346;2023-03-31T02:13:39;31.30;;;13.10;;
5776;SDS011;2914;42.668;23.346;2023-03-31T02:16:12;30.30;;;14.10;;
5776;SDS011;2914;42.668;23.346;2023-03-31T02:18:44;42.87;;;15.27;;
5776;SDS011;2914;42.668;23.346;2023-03-31T02:21:16;37.07;;;13.17;;
5776;SDS011;2914;42.668;23.346;2023-03-31T02:23:47;31.60;;;12.20;;
5776;SDS011;2914;42.668;23.346;2023-03-31T02:26:19;36.27;;;13.07;;
5776;SDS011;2914;42.668;23.346;2023-03-31T02:28:50;32.70;;;10.87;;
5776;SDS011;2914;42.668;23.346;2023-03-31T02:31:24;20.27;;;10.80;;
5776;SDS011;2914;42.668;23.346;2023-03-31T02:33:56;23.13;;;10.60;;
5776;SDS011;2914;42.668;23.346;2023-03-31T02:36:26;32.60;;;9.47;;
5776;SDS011;2914;42.668;23.346;2023-03-31T02:38:57;20.23;;;9.40;;
5776;SDS011;2914;42.668;23.346;2023-03-31T02:41:27;14.00;;;7.73;;
5776;SDS011;2914;42.668;23.346;2023-03-31T02:43:57;10.30;;;6.33;;
5776;SDS011;2914;42.668;23.346;2023-03-31T02:46:26;6.33;;;4.60;;
5776;SDS011;2914;42.668;23.346;2023-03-31T02:48:58;12.83;;;4.70;;
5776;SDS011;2914;42.668;23.346;2023-03-31T02:54:51;9.77;;;3.63;;
5776;SDS011;2914;42.668;23.346;2023-03-31T02:57:30;3.63;;;3.43;;
5776;SDS011;2914;42.668;23.346;2023-03-31T03:00:08;6.43;;;3.17;;
5776;SDS011;2914;42.668;23.346;2023-03-31T03:02:45;5.03;;;3.50;;
5776;SDS011;2914;42.668;23.346;2023-03-31T03:07:57;5.00;;;3.47;;
5776;SDS011;2914;42.668;23.346;2023-03-31T03:13:05;6.80;;;5.17;;
5776;SDS011;2914;42.668;23.346;2023-03-31T03:15:39;10.90;;;7.03;;
5776;SDS011;2914;42.668;23.346;2023-03-31T03:18:09;4.47;;;4.07;;
5776;SDS011;2914;42.668;23.346;2023-03-31T03:20:39;5.83;;;5.13;;
5776;SDS011;2914;42.668;23.346;2023-03-31T03:23:13;4.20;;;3.80;;
5776;SDS011;2914;42.668;23.346;2023-03-31T03:25:44;9.07;;;6.23;;
5776;SDS011;2914;42.668;23.346;2023-03-31T03:28:13;24.53;;;13.03;;
5776;SDS011;2914;42.668;23.346;2023-03-31T03:30:42;6.10;;;4.63;;
5776;SDS011;2914;42.668;23.346;2023-03-31T03:33:12;103.17;;;53.80;;
5776;SDS011;2914;42.668;23.346;2023-03-31T03:35:42;259.67;;;149.27;;
5776;SDS011;2914;42.668;23.346;2023-03-31T03:38:11;40.57;;;22.83;;
5776;SDS011;2914;42.668;23.346;2023-03-31T03:40:55;10.00;;;6.87;;
5776;SDS011;2914;42.668;23.346;2023-03-31T03:43:24;7.57;;;6.10;;
5776;SDS011;2914;42.668;23.346;2023-03-31T03:45:54;12.90;;;7.57;;
5776;SDS011;2914;42.668;23.346;2023-03-31T03:48:23;14.53;;;9.67;;
5776;SDS011;2914;42.668;23.346;2023-03-31T03:51:00;9.43;;;5.77;;
5776;SDS011;2914;42.668;23.346;2023-03-31T03:53:30;5.50;;;4.90;;
5776;SDS011;2914;42.668;23.346;2023-03-31T03:55:59;8.93;;;5.90;;
5776;SDS011;2914;42.668;23.346;2023-03-31T03:58:28;12.53;;;7.10;;
5776;SDS011;2914;42.668;23.346;2023-03-31T04:00:57;13.27;;;7.93;;
5776;SDS011;2914;42.668;23.346;2023-03-31T04:03:26;17.57;;;9.57;;
5776;SDS011;2914;42.668;23.346;2023-03-31T04:05:56;15.70;;;7.73;;
5776;SDS011;2914;42.668;23.346;2023-03-31T04:08:25;16.80;;;8.00;;
5776;SDS011;2914;42.668;23.346;2023-03-31T04:10:54;13.50;;;7.03;;
5776;SDS011;2914;42.668;23.346;2023-03-31T04:13:23;18.53;;;7.53;;
5776;SDS011;2914;42.668;23.346;2023-03-31T04:16:01;22.77;;;8.00;;
5776;SDS011;2914;42.668;23.346;2023-03-31T04:18:30;15.13;;;8.40;;
5776;SDS011;2914;42.668;23.346;2023-03-31T04:21:01;17.90;;;8.43;;
5776;SDS011;2914;42.668;23.346;2023-03-31T04:23:31;11.17;;;7.70;;
5776;SDS011;2914;42.668;23.346;2023-03-31T04:26:15;14.00;;;8.37;;
5776;SDS011;2914;42.668;23.346;2023-03-31T04:28:47;12.03;;;7.20;;
5776;SDS011;2914;42.668;23.346;2023-03-31T04:31:30;17.60;;;7.10;;
5776;SDS011;2914;42.668;23.346;2023-03-31T04:34:01;8.50;;;5.87;;
5776;SDS011;2914;42.668;23.346;2023-03-31T04:36:32;11.50;;;6.93;;
5776;SDS011;2914;42.668;23.346;2023-03-31T04:39:01;14.50;;;7.87;;
5776;SDS011;2914;42.668;23.346;2023-03-31T04:41:31;9.70;;;7.07;;
5776;SDS011;2914;42.668;23.346;2023-03-31T04:44:00;15.27;;;7.53;;
5776;SDS011;2914;42.668;23.346;2023-03-31T04:46:37;21.80;;;7.70;;
5776;SDS011;2914;42.668;23.346;2023-03-31T04:49:06;15.63;;;7.60;;
5776;SDS011;2914;42.668;23.346;2023-03-31T04:51:36;8.83;;;7.40;;
5776;SDS011;2914;42.668;23.346;2023-03-31T04:54:05;13.37;;;7.57;;
5776;SDS011;2914;42.668;23.346;2023-03-31T04:56:37;12.80;;;7.67;;
5776;SDS011;2914;42.668;23.346;2023-03-31T04:59:06;15.83;;;6.63;;
5776;SDS011;2914;42.668;23.346;2023-03-31T05:01:36;15.10;;;7.10;;
5776;SDS011;2914;42.668;23.346;2023-03-31T05:04:07;16.67;;;7.90;;
5776;SDS011;2914;42.668;23.346;2023-03-31T05:06:36;9.83;;;7.70;;
5776;SDS011;2914;42.668;23.346;2023-03-31T05:09:06;16.47;;;8.30;;
5776;SDS011;2914;42.668;23.346;2023-03-31T05:11:35;13.67;;;7.97;;
5776;SDS011;2914;42.668;23.346;2023-03-31T05:14:19;19.17;;;7.33;;
5776;SDS011;2914;42.668;23.346;2023-03-31T05:16:48;9.57;;;6.60;;
5776;SDS011;2914;42.668;23.346;2023-03-31T05:19:17;10.77;;;7.03;;
5776;SDS011;2914;42.668;23.346;2023-03-31T05:21:46;9.90;;;6.77;;
5776;SDS011;2914;42.668;23.346;2023-03-31T05:24:15;11.60;;;6.90;;
5776;SDS011;2914;42.668;23.346;2023-03-31T05:26:44;17.73;;;8.40;;
5776;SDS011;2914;42.668;23.346;2023-03-31T05:29:15;13.53;;;8.40;;
5776;SDS011;2914;42.668;23.346;2023-03-31T05:31:53;30.10;;;10.20;;
5776;SDS011;2914;42.668;23.346;2023-03-31T05:34:22;11.90;;;7.83;;
5776;SDS011;2914;42.668;23.346;2023-03-31T05:36:51;9.40;;;6.73;;
5776;SDS011;2914;42.668;23.346;2023-03-31T05:39:20;10.77;;;7.27;;
5776;SDS011;2914;42.668;23.346;2023-03-31T05:41:49;12.20;;;7.20;;
5776;SDS011;2914;42.668;23.346;2023-03-31T05:44:18;10.73;;;7.00;;
5776;SDS011;2914;42.668;23.346;2023-03-31T05:46:56;16.90;;;7.20;;
5776;SDS011;2914;42.668;23.346;2023-03-31T05:49:25;12.83;;;7.50;;
5776;SDS011;2914;42.668;23.346;2023-03-31T05:52:10;12.30;;;7.17;;
5776;SDS011;2914;42.668;23.346;2023-03-31T05:54:39;9.50;;;7.07;;
5776;SDS011;2914;42.668;23.346;2023-03-31T05:57:09;12.83;;;7.57;;
5776;SDS011;2914;42.668;23.346;2023-03-31T06:00:11;13.10;;;6.63;;
5776;SDS011;2914;42.668;23.346;2023-03-31T06:02:44;13.00;;;7.20;;
5776;SDS011;2914;42.668;23.346;2023-03-31T06:05:22;14.90;;;6.83;;
5776;SDS011;2914;42.668;23.346;2023-03-31T06:07:52;13.90;;;7.60;;
5776;SDS011;2914;42.668;23.346;2023-03-31T06:10:22;12.20;;;7.57;;
5776;SDS011;2914;42.668;23.346;2023-03-31T06:12:51;13.57;;;7.57;;
5776;SDS011;2914;42.668;23.346;2023-03-31T06:15:20;13.13;;;8.50;;
5776;SDS011;2914;42.668;23.346;2023-03-31T06:17:49;14.10;;;8.63;;
5776;SDS011;2914;42.668;23.346;2023-03-31T06:20:33;12.93;;;8.47;;
5776;SDS011;2914;42.668;23.346;2023-03-31T06:23:02;13.00;;;8.60;;
5776;SDS011;2914;42.668;23.346;2023-03-31T06:25:46;12.07;;;8.10;;
5776;SDS011;2914;42.668;23.346;2023-03-31T06:28:15;17.10;;;7.70;;
5776;SDS011;2914;42.668;23.346;2023-03-31T06:30:58;10.97;;;7.90;;
5776;SDS011;2914;42.668;23.346;2023-03-31T06:33:29;13.83;;;7.27;;
5776;SDS011;2914;42.668;23.346;2023-03-31T06:35:58;13.33;;;7.27;;
5776;SDS011;2914;42.668;23.346;2023-03-31T06:38:29;11.30;;;6.90;;
5776;SDS011;2914;42.668;23.346;2023-03-31T06:40:58;13.20;;;7.83;;
5776;SDS011;2914;42.668;23.346;2023-03-31T06:43:27;12.43;;;7.37;;
5776;SDS011;2914;42.668;23.346;2023-03-31T06:45:57;13.57;;;7.83;;
5776;SDS011;2914;42.668;23.346;2023-03-31T06:48:26;12.93;;;8.27;;
5776;SDS011;2914;42.668;23.346;2023-03-31T06:50:57;26.70;;;10.27;;
5776;SDS011;2914;42.668;23.346;2023-03-31T06:53:27;14.10;;;10.00;;
5776;SDS011;2914;42.668;23.346;2023-03-31T06:55:56;19.80;;;8.93;;
5776;SDS011;2914;42.668;23.346;2023-03-31T06:58:25;24.37;;;9.70;;
5776;SDS011;2914;42.668;23.346;2023-03-31T07:00:54;11.30;;;8.00;;
5776;SDS011;2914;42.668;23.346;2023-03-31T07:03:23;16.63;;;9.20;;
5776;SDS011;2914;42.668;23.346;2023-03-31T07:06:01;24.37;;;8.50;;
5776;SDS011;2914;42.668;23.346;2023-03-31T07:08:30;14.40;;;7.97;;
5776;SDS011;2914;42.668;23.346;2023-03-31T07:10:59;18.63;;;7.90;;
5776;SDS011;2914;42.668;23.346;2023-03-31T07:13:29;13.10;;;8.20;;
5776;SDS011;2914;42.668;23.346;2023-03-31T07:15:58;13.73;;;6.93;;
5776;SDS011;2914;42.668;23.346;2023-03-31T07:18:27;12.90;;;8.00;;
5776;SDS011;2914;42.668;23.346;2023-03-31T07:20:58;18.43;;;7.90;;
5776;SDS011;2914;42.668;23.346;2023-03-31T07:23:27;25.63;;;7.57;;
5776;SDS011;2914;42.668;23.346;2023-03-31T07:25:56;12.83;;;7.70;;
5776;SDS011;2914;42.668;23.346;2023-03-31T07:28:27;21.27;;;9.40;;
5776;SDS011;2914;42.668;23.346;2023-03-31T07:30:57;17.97;;;8.00;;
5776;SDS011;2914;42.668;23.346;2023-03-31T07:33:26;16.37;;;8.33;;
5776;SDS011;2914;42.668;23.346;2023-03-31T07:35:55;21.23;;;8.37;;
5776;SDS011;2914;42.668;23.346;2023-03-31T07:38:24;12.63;;;7.63;;
5776;SDS011;2914;42.668;23.346;2023-03-31T07:40:53;16.33;;;8.13;;
5776;SDS011;2914;42.668;23.346;2023-03-31T07:43:22;14.20;;;6.47;;
5776;SDS011;2914;42.668;23.346;2023-03-31T07:45:51;7.20;;;5.30;;
5776;SDS011;2914;42.668;23.346;2023-03-31T07:48:20;9.43;;;5.93;;
5776;SDS011;2914;42.668;23.346;2023-03-31T07:53:26;6.87;;;5.83;;
5776;SDS011;2914;42.668;23.346;2023-03-31T07:55:56;8.80;;;5.57;;
5776;SDS011;2914;42.668;23.346;2023-03-31T07:58:25;7.40;;;5.70;;
5776;SDS011;2914;42.668;23.346;2023-03-31T08:00:54;15.90;;;5.17;;
5776;SDS011;2914;42.668;23.346;2023-03-31T08:03:23;11.13;;;5.07;;
5776;SDS011;2914;42.668;23.346;2023-03-31T08:05:52;10.13;;;4.80;;
5776;SDS011;2914;42.668;23.346;2023-03-31T08:08:22;17.30;;;4.33;;
5776;SDS011;2914;42.668;23.346;2023-03-31T08:10:51;8.50;;;3.87;;
5776;SDS011;2914;42.668;23.346;2023-03-31T08:13:20;5.43;;;3.70;;
5776;SDS011;2914;42.668;23.346;2023-03-31T08:15:49;4.90;;;3.80;;
5776;SDS011;2914;42.668;23.346;2023-03-31T08:18:18;16.13;;;3.80;;
5776;SDS011;2914;42.668;23.346;2023-03-31T08:20:48;6.50;;;3.87;;
5776;SDS011;2914;42.668;23.346;2023-03-31T08:23:17;11.47;;;4.27;;
5776;SDS011;2914;42.668;23.346;2023-03-31T08:25:46;8.70;;;3.97;;
5776;SDS011;2914;42.668;23.346;2023-03-31T08:28:15;5.47;;;3.70;;
5776;SDS011;2914;42.668;23.346;2023-03-31T08:30:44;8.40;;;3.73;;
5776;SDS011;2914;42.668;23.346;2023-03-31T08:33:13;5.33;;;3.20;;
5776;SDS011;2914;42.668;23.346;2023-03-31T08:35:43;10.63;;;3.63;;
5776;SDS011;2914;42.668;23.346;2023-03-31T08:38:12;6.87;;;3.30;;
5776;SDS011;2914;42.668;23.346;2023-03-31T08:40:58;7.83;;;3.00;;
5776;SDS011;2914;42.668;23.346;2023-03-31T08:43:29;5.53;;;3.60;;
5776;SDS011;2914;42.668;23.346;2023-03-31T08:46:00;4.93;;;3.13;;
5776;SDS011;2914;42.668;23.346;2023-03-31T08:48:32;7.63;;;3.30;;
5776;SDS011;2914;42.668;23.346;2023-03-31T08:51:05;3.50;;;3.30;;
5776;SDS011;2914;42.668;23.346;2023-03-31T08:53:36;8.30;;;3.27;;
5776;SDS011;2914;42.668;23.346;2023-03-31T08:56:21;9.10;;;3.20;;
5776;SDS011;2914;42.668;23.346;2023-03-31T08:58:52;13.07;;;3.50;;
5776;SDS011;2914;42.668;23.346;2023-03-31T09:01:25;7.33;;;2.70;;
5776;SDS011;2914;42.668;23.346;2023-03-31T09:04:03;8.40;;;3.77;;
5776;SDS011;2914;42.668;23.346;2023-03-31T09:06:36;3.73;;;2.80;;
5776;SDS011;2914;42.668;23.346;2023-03-31T09:09:10;5.60;;;2.80;;
5776;SDS011;2914;42.668;23.346;2023-03-31T09:11:42;6.93;;;3.10;;
5776;SDS011;2914;42.668;23.346;2023-03-31T09:14:26;4.00;;;2.80;;
5776;SDS011;2914;42.668;23.346;2023-03-31T09:17:04;9.53;;;3.13;;
5776;SDS011;2914;42.668;23.346;2023-03-31T09:19:37;6.83;;;2.43;;
5776;SDS011;2914;42.668;23.346;2023-03-31T09:22:10;3.10;;;2.73;;
5776;SDS011;2914;42.668;23.346;2023-03-31T09:24:44;4.70;;;2.87;;
5776;SDS011;2914;42.668;23.346;2023-03-31T09:27:17;7.60;;;2.30;;
5776;SDS011;2914;42.668;23.346;2023-03-31T09:29:48;5.27;;;2.50;;
5776;SDS011;2914;42.668;23.346;2023-03-31T09:32:34;7.83;;;2.80;;
5776;SDS011;2914;42.668;23.346;2023-03-31T09:35:13;3.07;;;2.37;;
5776;SDS011;2914;42.668;23.346;2023-03-31T09:37:58;4.80;;;2.70;;
5776;SDS011;2914;42.668;23.346;2023-03-31T09:40:27;6.07;;;2.53;;
5776;SDS011;2914;42.668;23.346;2023-03-31T09:42:57;7.17;;;2.30;;
5776;SDS011;2914;42.668;23.346;2023-03-31T09:45:28;7.73;;;3.10;;
5776;SDS011;2914;42.668;23.346;2023-03-31T09:48:09;6.60;;;3.17;;
5776;SDS011;2914;42.668;23.346;2023-03-31T09:50:41;8.10;;;3.00;;
5776;SDS011;2914;42.668;23.346;2023-03-31T09:53:13;3.80;;;2.40;;
5776;SDS011;2914;42.668;23.346;2023-03-31T09:55:45;2.53;;;2.33;;
5776;SDS011;2914;42.668;23.346;2023-03-31T09:58:17;4.40;;;3.00;;
5776;SDS011;2914;42.668;23.346;2023-03-31T10:00:56;8.20;;;2.77;;
5776;SDS011;2914;42.668;23.346;2023-03-31T10:03:28;4.07;;;2.00;;
5776;SDS011;2914;42.668;23.346;2023-03-31T10:06:00;6.27;;;2.63;;
5776;SDS011;2914;42.668;23.346;2023-03-31T10:08:30;2.33;;;2.10;;
5776;SDS011;2914;42.668;23.346;2023-03-31T10:11:07;5.60;;;2.30;;
5776;SDS011;2914;42.668;23.346;2023-03-31T10:13:46;13.97;;;2.70;;
5776;SDS011;2914;42.668;23.346;2023-03-31T10:16:21;4.30;;;2.43;;
5776;SDS011;2914;42.668;23.346;2023-03-31T10:18:52;7.57;;;3.30;;
5776;SDS011;2914;42.668;23.346;2023-03-31T10:21:23;3.13;;;2.00;;
5776;SDS011;2914;42.668;23.346;2023-03-31T10:23:53;11.03;;;2.23;;
5776;SDS011;2914;42.668;23.346;2023-03-31T10:26:25;5.20;;;2.80;;
5776;SDS011;2914;42.668;23.346;2023-03-31T10:29:10;4.27;;;2.83;;
5776;SDS011;2914;42.668;23.346;2023-03-31T10:31:40;11.00;;;3.00;;
5776;SDS011;2914;42.668;23.346;2023-03-31T10:34:25;6.60;;;2.40;;
5776;SDS011;2914;42.668;23.346;2023-03-31T10:36:54;8.10;;;2.50;;
5776;SDS011;2914;42.668;23.346;2023-03-31T10:39:24;4.40;;;2.30;;
5776;SDS011;2914;42.668;23.346;2023-03-31T10:42:04;9.80;;;3.37;;
5776;SDS011;2914;42.668;23.346;2023-03-31T10:44:34;4.57;;;2.50;;
5776;SDS011;2914;42.668;23.346;2023-03-31T10:47:17;3.03;;;2.23;;
5776;SDS011;2914;42.668;23.346;2023-03-31T10:49:48;3.60;;;2.40;;
5776;SDS011;2914;42.668;23.346;2023-03-31T10:52:20;4.67;;;2.53;;
5776;SDS011;2914;42.668;23.346;2023-03-31T10:54:53;6.90;;;2.47;;
5776;SDS011;2914;42.668;23.346;2023-03-31T10:57:26;7.23;;;2.70;;
5776;SDS011;2914;42.668;23.346;2023-03-31T11:00:04;7.73;;;2.57;;
5776;SDS011;2914;42.668;23.346;2023-03-31T11:03:02;7.27;;;2.63;;
5776;SDS011;2914;42.668;23.346;2023-03-31T11:05:56;15.23;;;2.60;;
5776;SDS011;2914;42.668;23.346;2023-03-31T11:08:32;4.70;;;2.50;;
5776;SDS011;2914;42.668;23.346;2023-03-31T11:11:12;8.00;;;2.70;;
5776;SDS011;2914;42.668;23.346;2023-03-31T11:13:49;2.70;;;2.40;;
5776;SDS011;2914;42.668;23.346;2023-03-31T11:16:24;4.93;;;2.37;;
5776;SDS011;2914;42.668;23.346;2023-03-31T11:21:47;8.20;;;2.50;;
5776;SDS011;2914;42.668;23.346;2023-03-31T11:24:23;5.40;;;2.97;;
5776;SDS011;2914;42.668;23.346;2023-03-31T11:26:59;8.27;;;2.30;;
5776;SDS011;2914;42.668;23.346;2023-03-31T11:29:33;3.23;;;2.90;;
5776;SDS011;2914;42.668;23.346;2023-03-31T11:32:27;6.80;;;2.40;;
5776;SDS011;2914;42.668;23.346;2023-03-31T11:35:05;8.10;;;2.43;;
5776;SDS011;2914;42.668;23.346;2023-03-31T11:37:47;3.33;;;2.90;;
5776;SDS011;2914;42.668;23.346;2023-03-31T11:40:35;6.50;;;3.00;;
5776;SDS011;2914;42.668;23.346;2023-03-31T11:43:13;15.13;;;2.60;;
5776;SDS011;2914;42.668;23.346;2023-03-31T11:45:45;10.47;;;2.00;;
5776;SDS011;2914;42.668;23.346;2023-03-31T11:48:17;5.40;;;2.67;;
5776;SDS011;2914;42.668;23.346;2023-03-31T11:50:49;2.83;;;2.27;;
5776;SDS011;2914;42.668;23.346;2023-03-31T11:53:22;9.13;;;2.77;;
5776;SDS011;2914;42.668;23.346;2023-03-31T11:55:52;6.67;;;2.50;;
5776;SDS011;2914;42.668;23.346;2023-03-31T11:58:25;4.03;;;2.47;;
5776;SDS011;2914;42.668;23.346;2023-03-31T12:00:56;6.47;;;2.63;;
5776;SDS011;2914;42.668;23.346;2023-03-31T12:03:42;2.83;;;2.13;;
5776;SDS011;2914;42.668;23.346;2023-03-31T12:06:16;3.60;;;2.50;;
5776;SDS011;2914;42.668;23.346;2023-03-31T12:08:50;7.70;;;2.97;;
5776;SDS011;2914;42.668;23.346;2023-03-31T12:11:25;5.57;;;2.73;;
5776;SDS011;2914;42.668;23.346;2023-03-31T12:13:57;7.07;;;3.10;;
5776;SDS011;2914;42.668;23.346;2023-03-31T12:16:31;3.63;;;2.93;;
5776;SDS011;2914;42.668;23.346;2023-03-31T12:19:03;3.10;;;2.33;;
5776;SDS011;2914;42.668;23.346;2023-03-31T12:21:34;8.43;;;2.87;;
5776;SDS011;2914;42.668;23.346;2023-03-31T12:24:08;7.67;;;2.57;;
5776;SDS011;2914;42.668;23.346;2023-03-31T12:26:41;8.60;;;2.80;;
5776;SDS011;2914;42.668;23.346;2023-03-31T12:29:18;3.53;;;2.93;;
5776;SDS011;2914;42.668;23.346;2023-03-31T12:31:52;9.40;;;3.20;;
5776;SDS011;2914;42.668;23.346;2023-03-31T12:34:23;6.00;;;2.47;;
5776;SDS011;2914;42.668;23.346;2023-03-31T12:37:02;8.73;;;2.50;;
5776;SDS011;2914;42.668;23.346;2023-03-31T12:39:38;3.17;;;2.30;;
5776;SDS011;2914;42.668;23.346;2023-03-31T12:42:23;3.80;;;2.67;;
5776;SDS011;2914;42.668;23.346;2023-03-31T12:45:09;3.50;;;2.33;;
5776;SDS011;2914;42.668;23.346;2023-03-31T12:47:47;2.80;;;2.03;;
5776;SDS011;2914;42.668;23.346;2023-03-31T12:50:31;7.83;;;2.50;;
5776;SDS011;2914;42.668;23.346;2023-03-31T12:53:21;2.63;;;2.30;;
5776;SDS011;2914;42.668;23.346;2023-03-31T12:55:55;8.70;;;2.40;;
5776;SDS011;2914;42.668;23.346;2023-03-31T12:58:38;7.30;;;2.17;;
5776;SDS011;2914;42.668;23.346;2023-03-31T13:01:13;6.80;;;2.50;;
5776;SDS011;2914;42.668;23.346;2023-03-31T13:03:45;2.80;;;2.23;;
5776;SDS011;2914;42.668;23.346;2023-03-31T13:09:42;12.43;;;2.50;;
5776;SDS011;2914;42.668;23.346;2023-03-31T13:12:14;2.60;;;2.07;;
5776;SDS011;2914;42.668;23.346;2023-03-31T13:14:46;6.30;;;2.47;;
5776;SDS011;2914;42.668;23.346;2023-03-31T13:17:28;3.40;;;2.50;;
5776;SDS011;2914;42.668;23.346;2023-03-31T13:20:17;6.83;;;2.57;;
5776;SDS011;2914;42.668;23.346;2023-03-31T13:23:13;9.53;;;2.77;;
5776;SDS011;2914;42.668;23.346;2023-03-31T13:25:46;11.60;;;2.40;;
5776;SDS011;2914;42.668;23.346;2023-03-31T13:28:27;4.27;;;2.40;;
5776;SDS011;2914;42.668;23.346;2023-03-31T13:31:08;6.70;;;2.67;;
5776;SDS011;2914;42.668;23.346;2023-03-31T13:33:40;2.43;;;2.23;;
5776;SDS011;2914;42.668;23.346;2023-03-31T13:36:21;6.30;;;2.67;;
5776;SDS011;2914;42.668;23.346;2023-03-31T13:42:27;5.73;;;2.30;;
5776;SDS011;2914;42.668;23.346;2023-03-31T13:45:18;3.43;;;2.37;;
5776;SDS011;2914;42.668;23.346;2023-03-31T13:47:58;9.30;;;2.60;;
5776;SDS011;2914;42.668;23.346;2023-03-31T13:53:56;3.03;;;2.33;;
5776;SDS011;2914;42.668;23.346;2023-03-31T13:56:48;3.93;;;2.50;;
5776;SDS011;2914;42.668;23.346;2023-03-31T13:59:30;7.03;;;2.83;;
5776;SDS011;2914;42.668;23.346;2023-03-31T14:05:06;4.57;;;2.57;;
5776;SDS011;2914;42.668;23.346;2023-03-31T14:07:56;4.03;;;2.30;;
5776;SDS011;2914;42.668;23.346;2023-03-31T14:10:29;7.00;;;2.70;;
5776;SDS011;2914;42.668;23.346;2023-03-31T14:13:07;10.80;;;2.43;;
5776;SDS011;2914;42.668;23.346;2023-03-31T14:15:39;10.23;;;2.87;;
5776;SDS011;2914;42.668;23.346;2023-03-31T14:18:11;4.60;;;2.60;;
5776;SDS011;2914;42.668;23.346;2023-03-31T14:20:50;6.00;;;2.80;;
5776;SDS011;2914;42.668;23.346;2023-03-31T14:23:37;3.50;;;2.77;;
5776;SDS011;2914;42.668;23.346;2023-03-31T14:26:12;5.43;;;2.47;;
5776;SDS011;2914;42.668;23.346;2023-03-31T14:28:51;5.37;;;2.50;;
5776;SDS011;2914;42.668;23.346;2023-03-31T14:31:27;7.87;;;2.60;;
5776;SDS011;2914;42.668;23.346;2023-03-31T14:34:10;7.60;;;2.30;;
5776;SDS011;2914;42.668;23.346;2023-03-31T14:36:58;3.00;;;2.57;;
5776;SDS011;2914;42.668;23.346;2023-03-31T14:39:30;7.63;;;2.07;;
5776;SDS011;2914;42.668;23.346;2023-03-31T14:42:02;2.93;;;2.73;;
5776;SDS011;2914;42.668;23.346;2023-03-31T14:44:35;5.13;;;2.60;;
5776;SDS011;2914;42.668;23.346;2023-03-31T14:47:05;11.93;;;2.50;;
5776;SDS011;2914;42.668;23.346;2023-03-31T14:49:39;6.80;;;2.87;;
5776;SDS011;2914;42.668;23.346;2023-03-31T14:52:13;2.53;;;2.30;;
5776;SDS011;2914;42.668;23.346;2023-03-31T14:54:44;8.53;;;3.20;;
5776;SDS011;2914;42.668;23.346;2023-03-31T14:57:15;6.47;;;2.97;;
5776;SDS011;2914;42.668;23.346;2023-03-31T14:59:46;7.27;;;3.40;;
5776;SDS011;2914;42.668;23.346;2023-03-31T15:02:19;10.90;;;2.80;;
5776;SDS011;2914;42.668;23.346;2023-03-31T15:07:34;7.57;;;2.70;;
5776;SDS011;2914;42.668;23.346;2023-03-31T15:10:04;8.87;;;2.37;;
5776;SDS011;2914;42.668;23.346;2023-03-31T15:12:35;6.03;;;2.70;;
5776;SDS011;2914;42.668;23.346;2023-03-31T15:15:05;5.10;;;3.03;;
5776;SDS011;2914;42.668;23.346;2023-03-31T15:17:36;4.40;;;2.63;;
5776;SDS011;2914;42.668;23.346;2023-03-31T15:20:24;6.30;;;2.63;;
5776;SDS011;2914;42.668;23.346;2023-03-31T15:22:56;8.00;;;3.10;;
5776;SDS011;2914;42.668;23.346;2023-03-31T15:25:27;6.10;;;2.80;;
5776;SDS011;2914;42.668;23.346;2023-03-31T15:28:00;6.43;;;2.53;;
5776;SDS011;2914;42.668;23.346;2023-03-31T15:30:32;3.03;;;2.50;;
5776;SDS011;2914;42.668;23.346;2023-03-31T15:33:04;3.33;;;2.50;;
5776;SDS011;2914;42.668;23.346;2023-03-31T15:35:34;11.13;;;2.90;;
5776;SDS011;2914;42.668;23.346;2023-03-31T15:38:05;7.13;;;3.63;;
5776;SDS011;2914;42.668;23.346;2023-03-31T15:40:50;6.00;;;2.30;;
5776;SDS011;2914;42.668;23.346;2023-03-31T15:43:27;9.87;;;3.33;;
5776;SDS011;2914;42.668;23.346;2023-03-31T15:46:14;15.80;;;2.70;;
5776;SDS011;2914;42.668;23.346;2023-03-31T15:48:49;6.30;;;3.00;;
5776;SDS011;2914;42.668;23.346;2023-03-31T15:51:23;6.37;;;3.17;;
5776;SDS011;2914;42.668;23.346;2023-03-31T15:53:53;10.00;;;4.20;;
5776;SDS011;2914;42.668;23.346;2023-03-31T15:56:27;4.00;;;3.47;;
5776;SDS011;2914;42.668;23.346;2023-03-31T15:58:57;7.10;;;2.83;;
5776;SDS011;2914;42.668;23.346;2023-03-31T16:01:28;6.93;;;3.63;;
5776;SDS011;2914;42.668;23.346;2023-03-31T16:03:59;3.53;;;2.80;;
5776;SDS011;2914;42.668;23.346;2023-03-31T16:06:42;3.20;;;2.80;;
5776;SDS011;2914;42.668;23.346;2023-03-31T16:09:14;4.90;;;2.43;;
5776;SDS011;2914;42.668;23.346;2023-03-31T16:11:48;4.23;;;2.90;;
5776;SDS011;2914;42.668;23.346;2023-03-31T16:14:20;10.87;;;2.70;;